UAL2060 KBOS-KEWR
Flight info
| Callsign | UAL2060 |
|---|---|
| Flight time | 0h 47m |
| Altitude | 16000 |
| Route | PATSS7 PATSS NELIE FLOSI4 |
| Aircraft | B739/M-SDE2E3FGHIRWXY/LB1 |
Departure
| Time | 2026-05-05 17:24 |
|---|---|
| Airport | Boston Logan International Airport (KBOS) |
Arrival
| Time | 2026-05-05 18:11 |
|---|---|
| Airport | Newark Liberty International Airport (KEWR) |
| Time | Latitude | Longitude | Altitude | Speed | Heading |
|---|---|---|---|---|---|
| 2026-05-05 17:09 | 42.36089 | -71.01682 | 30 ft | 0 kts | 289° |
| 2026-05-05 17:14 | 42.36084 | -71.01661 | 29 ft | 4 kts | 291° |
| 2026-05-05 17:14 | 42.36073 | -71.01627 | 29 ft | 4 kts | 296° |
| 2026-05-05 17:15 | 42.36060 | -71.01596 | 28 ft | 4 kts | 310° |
| 2026-05-05 17:15 | 42.36042 | -71.01577 | 30 ft | 4 kts | 3° |
| 2026-05-05 17:15 | 42.36020 | -71.01585 | 27 ft | 4 kts | 20° |
| 2026-05-05 17:15 | 42.35994 | -71.01597 | 27 ft | 4 kts | 20° |
| 2026-05-05 17:16 | 42.35972 | -71.01608 | 27 ft | 1 kts | 20° |
| 2026-05-05 17:18 | 42.35976 | -71.01606 | 27 ft | 4 kts | 20° |
| 2026-05-05 17:18 | 42.36055 | -71.01568 | 30 ft | 21 kts | 20° |
| 2026-05-05 17:18 | 42.36174 | -71.01472 | 24 ft | 19 kts | 78° |
| 2026-05-05 17:18 | 42.36292 | -71.01356 | 30 ft | 26 kts | 20° |
| 2026-05-05 17:19 | 42.36486 | -71.01262 | 25 ft | 33 kts | 20° |
| 2026-05-05 17:19 | 42.36687 | -71.01165 | 27 ft | 29 kts | 19° |
| 2026-05-05 17:19 | 42.36835 | -71.01210 | 25 ft | 17 kts | 319° |
| 2026-05-05 17:19 | 42.36953 | -71.01145 | 25 ft | 24 kts | 41° |
| 2026-05-05 17:20 | 42.37045 | -71.01078 | 26 ft | 17 kts | 28° |
| 2026-05-05 17:20 | 42.37203 | -71.00972 | 24 ft | 25 kts | 26° |
| 2026-05-05 17:20 | 42.37410 | -71.00853 | 26 ft | 27 kts | 19° |
| 2026-05-05 17:20 | 42.37478 | -71.00822 | 26 ft | 22 kts | 20° |
| 2026-05-05 17:21 | 42.37653 | -71.00737 | 27 ft | 21 kts | 19° |
| 2026-05-05 17:21 | 42.37739 | -71.00696 | 24 ft | 10 kts | 19° |
| 2026-05-05 17:21 | 42.37781 | -71.00676 | 26 ft | 0 kts | 19° |
| 2026-05-05 17:22 | 42.37789 | -71.00672 | 25 ft | 5 kts | 19° |
| 2026-05-05 17:22 | 42.37831 | -71.00563 | 27 ft | 25 kts | 107° |
| 2026-05-05 17:23 | 42.37756 | -71.00491 | 26 ft | 0 kts | 195° |
| 2026-05-05 17:23 | 42.37752 | -71.00493 | 26 ft | 1 kts | 196° |
| 2026-05-05 17:23 | 42.37656 | -71.00537 | 26 ft | 45 kts | 199° |
| 2026-05-05 17:23 | 42.37149 | -71.00783 | 26 ft | 107 kts | 200° |
| 2026-05-05 17:24 | 42.36285 | -71.01185 | 41 ft | 153 kts | 198° |
| 2026-05-05 17:24 | 42.35242 | -71.01679 | 483 ft | 161 kts | 190° |
| 2026-05-05 17:24 | 42.34065 | -71.01659 | 843 ft | 183 kts | 176° |
| 2026-05-05 17:24 | 42.32738 | -71.01249 | 1063 ft | 208 kts | 164° |
| 2026-05-05 17:25 | 42.31375 | -71.00310 | 1232 ft | 238 kts | 142° |
| 2026-05-05 17:25 | 42.30693 | -70.99075 | 1377 ft | 262 kts | 117° |
| 2026-05-05 17:25 | 42.30744 | -70.95716 | 2212 ft | 284 kts | 72° |
| 2026-05-05 17:25 | 42.31398 | -70.93211 | 2858 ft | 288 kts | 77° |
| 2026-05-05 17:26 | 42.31869 | -70.90554 | 3498 ft | 295 kts | 81° |
| 2026-05-05 17:26 | 42.32278 | -70.87821 | 4165 ft | 298 kts | 82° |
| 2026-05-05 17:26 | 42.32673 | -70.85035 | 4827 ft | 304 kts | 82° |
| 2026-05-05 17:26 | 42.33064 | -70.82209 | 5473 ft | 308 kts | 85° |
| 2026-05-05 17:27 | 42.32954 | -70.79374 | 6105 ft | 299 kts | 115° |
| 2026-05-05 17:27 | 42.32116 | -70.76847 | 6805 ft | 294 kts | 126° |
| 2026-05-05 17:27 | 42.31111 | -70.74429 | 7468 ft | 295 kts | 131° |
| 2026-05-05 17:27 | 42.29691 | -70.72554 | 8127 ft | 279 kts | 160° |
| 2026-05-05 17:28 | 42.27909 | -70.71733 | 8868 ft | 267 kts | 180° |
| 2026-05-05 17:28 | 42.26087 | -70.71761 | 9573 ft | 260 kts | 195° |
| 2026-05-05 17:28 | 42.24292 | -70.72176 | 10216 ft | 267 kts | 197° |
| 2026-05-05 17:28 | 42.22426 | -70.72629 | 10711 ft | 278 kts | 197° |
| 2026-05-05 17:29 | 42.20608 | -70.73442 | 11334 ft | 274 kts | 216° |
| 2026-05-05 17:29 | 42.19207 | -70.75147 | 12001 ft | 275 kts | 233° |
| 2026-05-05 17:29 | 42.18243 | -70.77474 | 12172 ft | 297 kts | 252° |
| 2026-05-05 17:29 | 42.17784 | -70.80285 | 12354 ft | 318 kts | 258° |
| 2026-05-05 17:30 | 42.17394 | -70.83315 | 12505 ft | 338 kts | 259° |
| 2026-05-05 17:30 | 42.16986 | -70.86514 | 12723 ft | 353 kts | 259° |
| 2026-05-05 17:30 | 42.16549 | -70.89813 | 13254 ft | 360 kts | 259° |
| 2026-05-05 17:30 | 42.16098 | -70.93141 | 13915 ft | 362 kts | 259° |
| 2026-05-05 17:31 | 42.15691 | -70.96511 | 14430 ft | 368 kts | 261° |
| 2026-05-05 17:31 | 42.15371 | -70.99951 | 14966 ft | 373 kts | 262° |
| 2026-05-05 17:31 | 42.15076 | -71.03437 | 15563 ft | 376 kts | 262° |
| 2026-05-05 17:31 | 42.14782 | -71.06961 | 15993 ft | 380 kts | 262° |
| 2026-05-05 17:32 | 42.14479 | -71.10531 | 16024 ft | 387 kts | 262° |
| 2026-05-05 17:32 | 42.14164 | -71.14154 | 16027 ft | 390 kts | 262° |
| 2026-05-05 17:32 | 42.13847 | -71.17731 | 16015 ft | 389 kts | 262° |
| 2026-05-05 17:32 | 42.13524 | -71.21338 | 16017 ft | 387 kts | 262° |
| 2026-05-05 17:33 | 42.13198 | -71.24938 | 16024 ft | 387 kts | 262° |
| 2026-05-05 17:33 | 42.12870 | -71.28540 | 16016 ft | 387 kts | 262° |
| 2026-05-05 17:33 | 42.12541 | -71.32133 | 16019 ft | 387 kts | 262° |
| 2026-05-05 17:33 | 42.12209 | -71.35738 | 16021 ft | 387 kts | 262° |
| 2026-05-05 17:34 | 42.11878 | -71.39336 | 16014 ft | 388 kts | 262° |
| 2026-05-05 17:34 | 42.11545 | -71.42940 | 16021 ft | 388 kts | 262° |
| 2026-05-05 17:34 | 42.11210 | -71.46546 | 16021 ft | 388 kts | 261° |
| 2026-05-05 17:34 | 42.10872 | -71.50163 | 16011 ft | 389 kts | 262° |
| 2026-05-05 17:35 | 42.10535 | -71.53773 | 16011 ft | 389 kts | 262° |
| 2026-05-05 17:35 | 42.10196 | -71.57387 | 16032 ft | 389 kts | 262° |
| 2026-05-05 17:35 | 42.09856 | -71.60998 | 16019 ft | 388 kts | 262° |
| 2026-05-05 17:35 | 42.09516 | -71.64607 | 16018 ft | 388 kts | 262° |
| 2026-05-05 17:36 | 42.09179 | -71.68161 | 16017 ft | 387 kts | 262° |
| 2026-05-05 17:36 | 42.08829 | -71.71754 | 16013 ft | 386 kts | 261° |
| 2026-05-05 17:36 | 42.08374 | -71.75309 | 16016 ft | 386 kts | 258° |
| 2026-05-05 17:36 | 42.07847 | -71.78852 | 16011 ft | 385 kts | 257° |
| 2026-05-05 17:37 | 42.07301 | -71.82378 | 16002 ft | 385 kts | 257° |
| 2026-05-05 17:37 | 42.06938 | -71.84711 | 16008 ft | 385 kts | 257° |
| 2026-05-05 17:37 | 42.06212 | -71.89430 | 16004 ft | 385 kts | 258° |
| 2026-05-05 17:37 | 42.05674 | -71.92966 | 16021 ft | 385 kts | 258° |
| 2026-05-05 17:38 | 42.05143 | -71.96494 | 16011 ft | 385 kts | 258° |
| 2026-05-05 17:38 | 42.04613 | -72.00026 | 16007 ft | 385 kts | 258° |
| 2026-05-05 17:38 | 42.04084 | -72.03554 | 16017 ft | 385 kts | 258° |
| 2026-05-05 17:38 | 42.03555 | -72.07083 | 16004 ft | 385 kts | 258° |
| 2026-05-05 17:39 | 42.03025 | -72.10611 | 16006 ft | 385 kts | 258° |
| 2026-05-05 17:39 | 42.02494 | -72.14137 | 15996 ft | 385 kts | 258° |
| 2026-05-05 17:39 | 42.01962 | -72.17665 | 15987 ft | 385 kts | 258° |
| 2026-05-05 17:39 | 42.01430 | -72.21182 | 15987 ft | 384 kts | 258° |
| 2026-05-05 17:40 | 42.00895 | -72.24708 | 15993 ft | 384 kts | 258° |
| 2026-05-05 17:40 | 42.00368 | -72.28179 | 15995 ft | 384 kts | 258° |
| 2026-05-05 17:40 | 41.99832 | -72.31698 | 15991 ft | 384 kts | 258° |
| 2026-05-05 17:40 | 41.99295 | -72.35219 | 15979 ft | 384 kts | 258° |
| 2026-05-05 17:41 | 41.98757 | -72.38737 | 15980 ft | 384 kts | 258° |
| 2026-05-05 17:41 | 41.98219 | -72.42253 | 15981 ft | 384 kts | 258° |
| 2026-05-05 17:41 | 41.97679 | -72.45767 | 15981 ft | 384 kts | 258° |
| 2026-05-05 17:41 | 41.97139 | -72.49279 | 15970 ft | 384 kts | 258° |
| 2026-05-05 17:42 | 41.96597 | -72.52791 | 15983 ft | 384 kts | 258° |
| 2026-05-05 17:42 | 41.96055 | -72.56299 | 15976 ft | 384 kts | 258° |
| 2026-05-05 17:42 | 41.95512 | -72.59812 | 15969 ft | 384 kts | 258° |
| 2026-05-05 17:42 | 41.94968 | -72.63320 | 15986 ft | 384 kts | 258° |
| 2026-05-05 17:43 | 41.94422 | -72.66830 | 15987 ft | 384 kts | 258° |
| 2026-05-05 17:43 | 41.93846 | -72.70334 | 15980 ft | 384 kts | 255° |
| 2026-05-05 17:43 | 41.93100 | -72.73775 | 15980 ft | 384 kts | 252° |
| 2026-05-05 17:43 | 41.92279 | -72.77145 | 15978 ft | 384 kts | 252° |
| 2026-05-05 17:44 | 41.91426 | -72.80543 | 15959 ft | 384 kts | 252° |
| 2026-05-05 17:44 | 41.90577 | -72.83939 | 15969 ft | 384 kts | 252° |
| 2026-05-05 17:44 | 41.89736 | -72.87339 | 15960 ft | 384 kts | 252° |
| 2026-05-05 17:44 | 41.88906 | -72.90734 | 15975 ft | 384 kts | 252° |
| 2026-05-05 17:45 | 41.88079 | -72.94144 | 15975 ft | 384 kts | 252° |
| 2026-05-05 17:45 | 41.87255 | -72.97560 | 15993 ft | 385 kts | 252° |
| 2026-05-05 17:45 | 41.86431 | -73.00979 | 15985 ft | 386 kts | 252° |
| 2026-05-05 17:45 | 41.85607 | -73.04404 | 15976 ft | 386 kts | 252° |
| 2026-05-05 17:46 | 41.84782 | -73.07824 | 15978 ft | 385 kts | 252° |
| 2026-05-05 17:46 | 41.83956 | -73.11243 | 15984 ft | 386 kts | 252° |
| 2026-05-05 17:46 | 41.83141 | -73.14616 | 15979 ft | 385 kts | 252° |
| 2026-05-05 17:46 | 41.82302 | -73.18080 | 15982 ft | 385 kts | 252° |
| 2026-05-05 17:47 | 41.81485 | -73.21448 | 15980 ft | 385 kts | 252° |
| 2026-05-05 17:47 | 41.80657 | -73.24858 | 15972 ft | 385 kts | 252° |
| 2026-05-05 17:47 | 41.79828 | -73.28267 | 15963 ft | 384 kts | 252° |
| 2026-05-05 17:47 | 41.79000 | -73.31667 | 15977 ft | 384 kts | 252° |
| 2026-05-05 17:48 | 41.78170 | -73.35073 | 15984 ft | 385 kts | 252° |
| 2026-05-05 17:48 | 41.77337 | -73.38480 | 15955 ft | 385 kts | 252° |
| 2026-05-05 17:48 | 41.76503 | -73.41890 | 15964 ft | 385 kts | 252° |
| 2026-05-05 17:48 | 41.75950 | -73.44145 | 15963 ft | 386 kts | 252° |
| 2026-05-05 17:49 | 41.75111 | -73.47565 | 15950 ft | 386 kts | 252° |
| 2026-05-05 17:49 | 41.74274 | -73.50970 | 15945 ft | 385 kts | 252° |
| 2026-05-05 17:49 | 41.73434 | -73.54381 | 15944 ft | 385 kts | 252° |
| 2026-05-05 17:49 | 41.72597 | -73.57786 | 15945 ft | 386 kts | 252° |
| 2026-05-05 17:50 | 41.71759 | -73.61188 | 15950 ft | 385 kts | 252° |
| 2026-05-05 17:50 | 41.70918 | -73.64595 | 15942 ft | 385 kts | 252° |
| 2026-05-05 17:50 | 41.70077 | -73.67993 | 15949 ft | 385 kts | 252° |
| 2026-05-05 17:50 | 41.69234 | -73.71398 | 15953 ft | 385 kts | 252° |
| 2026-05-05 17:51 | 41.68390 | -73.74801 | 15948 ft | 385 kts | 252° |
| 2026-05-05 17:51 | 41.67544 | -73.78208 | 15955 ft | 385 kts | 252° |
| 2026-05-05 17:51 | 41.66698 | -73.81604 | 15944 ft | 385 kts | 252° |
| 2026-05-05 17:51 | 41.65867 | -73.85007 | 15953 ft | 385 kts | 252° |
| 2026-05-05 17:52 | 41.65061 | -73.88414 | 15946 ft | 385 kts | 253° |
| 2026-05-05 17:52 | 41.64258 | -73.91833 | 15955 ft | 385 kts | 253° |
| 2026-05-05 17:52 | 41.63468 | -73.95198 | 15954 ft | 385 kts | 253° |
| 2026-05-05 17:52 | 41.62663 | -73.98614 | 15958 ft | 385 kts | 253° |
| 2026-05-05 17:53 | 41.61856 | -74.02024 | 15963 ft | 384 kts | 252° |
| 2026-05-05 17:53 | 41.61049 | -74.05424 | 15959 ft | 384 kts | 253° |
| 2026-05-05 17:53 | 41.60240 | -74.08822 | 15952 ft | 384 kts | 252° |
| 2026-05-05 17:53 | 41.59431 | -74.12217 | 15953 ft | 383 kts | 253° |
| 2026-05-05 17:54 | 41.58621 | -74.15609 | 15962 ft | 383 kts | 252° |
| 2026-05-05 17:54 | 41.57810 | -74.19004 | 15945 ft | 383 kts | 252° |
| 2026-05-05 17:54 | 41.57000 | -74.22390 | 15944 ft | 383 kts | 252° |
| 2026-05-05 17:54 | 41.56188 | -74.25774 | 15931 ft | 380 kts | 252° |
| 2026-05-05 17:55 | 41.55327 | -74.29060 | 15486 ft | 372 kts | 246° |
| 2026-05-05 17:55 | 41.53861 | -74.31876 | 14773 ft | 372 kts | 229° |
| 2026-05-05 17:55 | 41.51869 | -74.34110 | 13934 ft | 377 kts | 217° |
| 2026-05-05 17:55 | 41.49487 | -74.35633 | 13117 ft | 383 kts | 204° |
| 2026-05-05 17:56 | 41.46990 | -74.36653 | 12593 ft | 373 kts | 202° |
| 2026-05-05 17:56 | 41.44611 | -74.37620 | 12434 ft | 343 kts | 203° |
| 2026-05-05 17:56 | 41.42424 | -74.38538 | 12255 ft | 317 kts | 204° |
| 2026-05-05 17:56 | 41.40397 | -74.39407 | 12110 ft | 295 kts | 204° |
| 2026-05-05 17:57 | 41.38516 | -74.40217 | 11980 ft | 276 kts | 205° |
| 2026-05-05 17:57 | 41.36738 | -74.40985 | 11669 ft | 265 kts | 205° |
| 2026-05-05 17:57 | 41.34989 | -74.41745 | 11134 ft | 263 kts | 204° |
| 2026-05-05 17:57 | 41.33253 | -74.42496 | 10637 ft | 260 kts | 205° |
| 2026-05-05 17:58 | 41.31552 | -74.43226 | 10220 ft | 255 kts | 205° |
| 2026-05-05 17:58 | 41.29874 | -74.43946 | 9749 ft | 252 kts | 205° |
| 2026-05-05 17:58 | 41.28204 | -74.44645 | 9182 ft | 253 kts | 200° |
| 2026-05-05 17:58 | 41.26405 | -74.44557 | 8567 ft | 273 kts | 170° |
| 2026-05-05 17:59 | 41.24655 | -74.43494 | 8081 ft | 280 kts | 157° |
| 2026-05-05 17:59 | 41.23057 | -74.42088 | 7597 ft | 279 kts | 153° |
| 2026-05-05 17:59 | 41.21482 | -74.40594 | 7223 ft | 277 kts | 152° |
| 2026-05-05 17:59 | 41.19918 | -74.39075 | 7120 ft | 277 kts | 151° |
| 2026-05-05 18:00 | 41.18365 | -74.37585 | 6871 ft | 274 kts | 152° |
| 2026-05-05 18:00 | 41.16827 | -74.36127 | 6639 ft | 270 kts | 151° |
| 2026-05-05 18:00 | 41.15303 | -74.34694 | 6378 ft | 267 kts | 152° |
| 2026-05-05 18:00 | 41.13794 | -74.33285 | 6123 ft | 264 kts | 152° |
| 2026-05-05 18:01 | 41.12298 | -74.31913 | 5860 ft | 260 kts | 153° |
| 2026-05-05 18:01 | 41.10814 | -74.30566 | 5637 ft | 256 kts | 153° |
| 2026-05-05 18:01 | 41.09333 | -74.29228 | 5374 ft | 258 kts | 151° |
| 2026-05-05 18:01 | 41.07878 | -74.27851 | 5115 ft | 257 kts | 150° |
| 2026-05-05 18:02 | 41.06423 | -74.26482 | 4872 ft | 256 kts | 151° |
| 2026-05-05 18:02 | 41.04969 | -74.25122 | 4627 ft | 256 kts | 150° |
| 2026-05-05 18:02 | 41.03516 | -74.23768 | 4385 ft | 255 kts | 151° |
| 2026-05-05 18:02 | 41.02067 | -74.22423 | 4142 ft | 254 kts | 151° |
| 2026-05-05 18:03 | 41.00627 | -74.21086 | 3890 ft | 252 kts | 151° |
| 2026-05-05 18:03 | 40.99198 | -74.19762 | 3641 ft | 250 kts | 150° |
| 2026-05-05 18:03 | 40.97784 | -74.18461 | 3487 ft | 242 kts | 151° |
| 2026-05-05 18:03 | 40.96451 | -74.17228 | 3415 ft | 227 kts | 152° |
| 2026-05-05 18:04 | 40.95208 | -74.16085 | 3318 ft | 213 kts | 153° |
| 2026-05-05 18:04 | 40.94022 | -74.15002 | 3221 ft | 200 kts | 155° |
| 2026-05-05 18:04 | 40.92864 | -74.14106 | 3091 ft | 188 kts | 159° |
| 2026-05-05 18:04 | 40.91711 | -74.13261 | 3018 ft | 190 kts | 159° |
| 2026-05-05 18:05 | 40.90558 | -74.12407 | 3005 ft | 190 kts | 159° |
| 2026-05-05 18:05 | 40.89418 | -74.11561 | 3011 ft | 183 kts | 159° |
| 2026-05-05 18:05 | 40.88349 | -74.10762 | 3007 ft | 170 kts | 159° |
| 2026-05-05 18:05 | 40.87338 | -74.10006 | 2973 ft | 166 kts | 159° |
| 2026-05-05 18:06 | 40.86315 | -74.09275 | 2842 ft | 170 kts | 159° |
| 2026-05-05 18:06 | 40.85619 | -74.08768 | 2632 ft | 174 kts | 158° |
| 2026-05-05 18:06 | 40.84206 | -74.07625 | 2153 ft | 181 kts | 154° |
| 2026-05-05 18:06 | 40.83181 | -74.06677 | 1942 ft | 178 kts | 151° |
| 2026-05-05 18:07 | 40.82134 | -74.05962 | 1675 ft | 164 kts | 182° |
| 2026-05-05 18:07 | 40.81193 | -74.06438 | 1643 ft | 133 kts | 215° |
| 2026-05-05 18:07 | 40.80399 | -74.07086 | 1731 ft | 147 kts | 214° |
| 2026-05-05 18:07 | 40.79527 | -74.07859 | 1769 ft | 152 kts | 214° |
| 2026-05-05 18:08 | 40.78801 | -74.08753 | 1759 ft | 140 kts | 242° |
| 2026-05-05 18:08 | 40.78757 | -74.10029 | 1794 ft | 146 kts | 270° |
| 2026-05-05 18:08 | 40.78577 | -74.11232 | 1750 ft | 127 kts | 223° |
| 2026-05-05 18:08 | 40.77760 | -74.11511 | 1691 ft | 128 kts | 181° |
| 2026-05-05 18:09 | 40.76909 | -74.11679 | 1513 ft | 124 kts | 210° |
| 2026-05-05 18:09 | 40.76063 | -74.12178 | 1353 ft | 139 kts | 206° |
| 2026-05-05 18:09 | 40.75190 | -74.12691 | 1165 ft | 136 kts | 203° |
| 2026-05-05 18:09 | 40.74360 | -74.13183 | 937 ft | 131 kts | 206° |
| 2026-05-05 18:10 | 40.73544 | -74.13718 | 918 ft | 129 kts | 207° |
| 2026-05-05 18:10 | 40.72723 | -74.14244 | 647 ft | 135 kts | 208° |
| 2026-05-05 18:10 | 40.71914 | -74.14779 | 469 ft | 128 kts | 207° |
| 2026-05-05 18:10 | 40.71147 | -74.15282 | 333 ft | 118 kts | 202° |
| 2026-05-05 18:11 | 40.70416 | -74.15732 | 160 ft | 117 kts | 204° |
| 2026-05-05 18:11 | 40.69697 | -74.16191 | 34 ft | 110 kts | 205° |
| 2026-05-05 18:11 | 40.69092 | -74.16577 | 23 ft | 77 kts | 206° |
| 2026-05-05 18:11 | 40.68836 | -74.16757 | 21 ft | 28 kts | 218° |
| 2026-05-05 18:12 | 40.68709 | -74.16928 | 21 ft | 26 kts | 231° |
| 2026-05-05 18:12 | 40.68625 | -74.17110 | 21 ft | 17 kts | 259° |
| 2026-05-05 18:12 | 40.68660 | -74.17249 | 23 ft | 16 kts | 297° |
| 2026-05-05 18:12 | 40.68700 | -74.17337 | 22 ft | 6 kts | 320° |
| 2026-05-05 18:13 | 40.68772 | -74.17321 | 22 ft | 18 kts | 24° |
| 2026-05-05 18:13 | 40.68918 | -74.17229 | 21 ft | 28 kts | 26° |
| 2026-05-05 18:13 | 40.69115 | -74.17102 | 21 ft | 35 kts | 26° |
| 2026-05-05 18:13 | 40.69358 | -74.16979 | 21 ft | 40 kts | 9° |
| 2026-05-05 18:14 | 40.69642 | -74.17025 | 21 ft | 42 kts | 341° |
| 2026-05-05 18:14 | 40.69837 | -74.17210 | 21 ft | 21 kts | 271° |
| 2026-05-05 18:14 | 40.69772 | -74.17310 | 21 ft | 11 kts | 228° |
| 2026-05-05 18:14 | 40.69721 | -74.17374 | 22 ft | 3 kts | 221° |
| 2026-05-05 18:15 | 40.69720 | -74.17375 | 22 ft | 2 kts | 221° |
| 2026-05-05 18:15 | 40.69690 | -74.17432 | 21 ft | 8 kts | 280° |
| 2026-05-05 18:15 | 40.69710 | -74.17469 | 22 ft | 0 kts | 305° |